| time (UTC) | temp C | wind direction | speed KPH | gust KPH | rain 1hr cm | rain 24hr cm | rain mn cm | humidity % | barometer mb |
| 20260504050304 | 6 | 110 | 0.0 | 0.0 | 0.00 | 0.00 | 0.00 | 93 | 1017.0 |
| 20260504045804 | 6 | 110 | 0.0 | 0.0 | 0.00 | 0.00 | 0.00 | 92 | 1017.0 |
| 20260504044801 | 6 | 110 | 0.0 | 0.0 | 0.00 | 0.00 | 0.00 | 91 | 1017.0 |
| 20260504043256 | 7 | 110 | 0.0 | 0.0 | 0.00 | 0.00 | 0.00 | 89 | 1017.0 |
| 20260504024724 | 9 | 189 | 0.0 | 0.0 | 0.00 | 0.00 | 0.00 | 79 | 1017.0 |
| 20260504020710 | 11 | 189 | 0.0 | 0.0 | 0.00 | 0.00 | 0.00 | 73 | 1018.0 |
| 20260504015708 | 11 | 189 | 0.0 | 0.0 | 0.00 | 0.00 | 0.00 | 71 | 1018.0 |
| 20260504011152 | 15 | 189 | 0.0 | 0.0 | 0.00 | 0.00 | 0.00 | 58 | 1018.0 |
| 20260504010650 | 15 | 191 | 0.0 | 0.0 | 0.00 | 0.00 | 0.00 | 57 | 1018.0 |
| 20260504010147 | 15 | 191 | 0.0 | 0.0 | 0.00 | 0.00 | 0.00 | 55 | 1018.0 |
| 20260504002128 | 21 | 264 | 0.0 | 0.0 | 0.00 | 0.00 | 0.00 | 41 | 1018.0 |
| 20260504000121 | 23 | 287 | 0.0 | 0.0 | 0.00 | 0.00 | 0.00 | 34 | 1018.0 |
| 20260503234113 | 25 | 290 | 6.4 | 14.5 | 0.00 | 0.00 | 0.00 | 32 | 1018.0 |
| 20260503221601 | 24 | 288 | 9.7 | 11.3 | 0.00 | 0.00 | 0.00 | 32 | 1019.0 |
| 20260503221524 | 24 | 288 | 9.7 | 11.3 | 0.00 | 0.00 | 0.00 | 32 | 1019.0 |
| 20260503204433 | 22 | 338 | 8.0 | 11.3 | 0.00 | 0.00 | 0.00 | 33 | 1020.0 |
| 20260503194400 | 22 | 276 | 12.9 | 19.3 | 0.00 | 0.00 | 0.00 | 34 | 1020.0 |
| 20260503193354 | 22 | 17 | 11.3 | 16.1 | 0.00 | 0.00 | 0.00 | 35 | 1020.0 |
| 20260503192350 | 21 | 167 | 6.4 | 11.3 | 0.00 | 0.00 | 0.00 | 37 | 1021.0 |
| 20260503190840 | 21 | 289 | 11.3 | 16.1 | 0.00 | 0.00 | 0.00 | 35 | 1021.0 |
| 20260503190337 | 21 | 351 | 0.0 | 9.7 | 0.00 | 0.00 | 0.00 | 35 | 1021.0 |
| 20260503185335 | 21 | 351 | 8.0 | 14.5 | 0.00 | 0.00 | 0.00 | 36 | 1021.0 |
| 20260503183320 | 21 | 332 | 9.7 | 17.7 | 0.00 | 0.00 | 0.00 | 35 | 1021.0 |
| 20260503182312 | 20 | 306 | 6.4 | 11.3 | 0.00 | 0.00 | 0.00 | 37 | 1021.0 |
| 20260503181307 | 20 | 289 | 9.7 | 12.9 | 0.00 | 0.00 | 0.00 | 36 | 1021.0 |
| 20260503180805 | 20 | 323 | 4.8 | 17.7 | 0.00 | 0.00 | 0.00 | 37 | 1021.0 |
| 20260503172749 | 20 | 254 | 11.3 | 11.3 | 0.00 | 0.00 | 0.00 | 42 | 1022.0 |